To NAV CANADA Home Page Login to a new session Search on AWWS site Feedback and Comments Disclaimer Vers la page française équivalente Tips FAQ What's new on the site To the Forecasts and Observations / NOTAM section To "File a Flight Plan" website Publications and other links Update of the User's profile FIC Telephone Numbers My Weather Data Folder Route Weather Data Regional Weather Data Local Weather Data To the Forecasts and Observations / NOTAM section
Request Generated 04/20/2014 at 00:37:20 UTC . Weather information available at that time is displayed.

METAR/TAF

HALIFAX/STANFIELD INTL/NS    

METAR CYHZ 200000Z 31014G21KT 15SM OVC050 06/M00 A3006 RMK SC8
SLP183=
METAR CYHZ 192300Z 31014KT 15SM OVC055 07/M00 A3004 RMK SC8 SLP177=
METAR CYHZ 192200Z 32014KT 15SM BKN055 07/M00 A3001 RMK CU7 SLP169=

TAF CYHZ 192338Z 2000/2024 32012KT P6SM FEW030 BKN060 TEMPO 2000/2006
P6SM -SHRA
FM201200 35015KT P6SM SCT008
FM201600 33012KT P6SM FEW030
BECMG 2020/2022 30008KT
RMK NXT FCST BY 200300Z=
Your time UTC time
Weather data provided by Environment Canada and NAV CANADA